Terminal Aerodrome Forecast
Issued by NWS

Home | Current Version | Previous Version | Text Only | Print | Product List | Glossary On
Versions: 1 2 3 4 5 6 7 8 9 10 11 12 13
347
FTUS43 KPAH 211520 AAA
TAFCGI
TAF AMD
KCGI 211520Z 2115/2212 36010KT P6SM SKC
     FM211630 01010KT P6SM SCT035 BKN060
     FM220100 35004KT P6SM SCT030
     FM220500 00000KT P6SM SKC=

USA.gov is the U.S. government's official web portal to all federal, state and local government web resources and services.